Time;durP1;ratioP1;P1;durP2;ratioP2;P2;SDS_P1;SDS_P2;PMS_P1;PMS_P2;Temp;Humidity;BMP_temperature;BMP_pressure;BME280_temperature;BME280_humidity;BME280_pressure;Samples;Min_cycle;Max_cycle;Signal;HPM_P1;HPM_P2
2021/03/15 00:02:10;;;;;;;;;;;;;;;8.79;100.00;91980.78;4990417;28;20054;-77
2021/03/15 00:04:38;;;;;;;8.25;5.78;;;;;;;8.69;100.00;91955.78;4989773;28;19928;-77
2021/03/15 00:07:04;;;;;;;10.23;5.80;;;;;;;8.80;100.00;91973.88;4989681;28;20046;-76
2021/03/15 00:09:30;;;;;;;;;;;;;;;8.85;100.00;91976.53;4990419;28;20050;-76
2021/03/15 00:11:56;;;;;;;9.55;6.03;;;;;;;8.83;100.00;91965.72;4989906;28;19929;-76
2021/03/15 00:14:23;;;;;;;7.43;5.55;;;;;;;8.77;100.00;91953.84;4989596;28;20085;-76
2021/03/15 00:16:50;;;;;;;8.52;5.35;;;;;;;8.94;100.00;91962.34;4990012;28;20042;-76
2021/03/15 00:19:17;;;;;;;9.45;5.38;;;;;;;8.89;100.00;91958.91;4989713;28;20057;-76
2021/03/15 00:21:44;;;;;;;8.43;4.63;;;;;;;8.74;100.00;91942.28;4989627;28;20051;-76
2021/03/15 00:24:11;;;;;;;9.35;5.53;;;;;;;8.82;100.00;91949.59;4989616;28;20492;-76
2021/03/15 00:26:38;;;;;;;7.93;5.00;;;;;;;8.80;100.00;91948.28;4989900;28;20423;-76
2021/03/15 00:29:04;;;;;;;8.45;4.70;;;;;;;8.77;100.00;91951.28;4989382;28;20547;-77
2021/03/15 00:31:30;;;;;;;6.72;5.18;;;;;;;8.69;100.00;91942.97;5006357;28;20054;-77
2021/03/15 00:33:56;;;;;;;;;;;;;;;8.67;100.00;91942.41;5009823;28;20876;-77
2021/03/15 00:36:23;;;;;;;10.52;5.40;;;;;;;8.66;100.00;91943.41;5009090;28;19949;-76
2021/03/15 00:38:50;;;;;;;;;;;;;;;8.69;100.00;91942.19;5009064;28;20050;-76
2021/03/15 00:41:17;;;;;;;8.63;5.15;;;;;;;8.67;100.00;91934.72;5009043;28;19925;-76
2021/03/15 00:43:43;;;;;;;;;;;;;;;8.65;100.00;91923.94;5009604;28;20458;-76
2021/03/15 00:46:09;;;;;;;6.95;4.03;;;;;;;8.65;100.00;91925.72;5009409;28;20322;-76
2021/03/15 00:48:36;;;;;;;6.30;3.85;;;;;;;8.60;100.00;91912.84;5009161;28;20404;-76
2021/03/15 00:51:02;;;;;;;7.40;4.03;;;;;;;8.72;100.00;91918.69;5008904;28;20053;-76
2021/03/15 00:53:28;;;;;;;5.93;3.97;;;;;;;8.70;100.00;91918.13;5008844;28;20491;-77
2021/03/15 00:55:55;;;;;;;;;;;;;;;8.74;100.00;91921.78;5009831;28;20056;-76
2021/03/15 00:58:21;;;;;;;6.40;3.88;;;;;;;8.72;100.00;91921.25;5008934;28;19922;-77
2021/03/15 01:00:49;;;;;;;;;;;;;;;8.77;100.00;91911.09;5009294;28;20454;-77
2021/03/15 01:03:16;;;;;;;5.30;3.22;;;;;;;8.76;100.00;91907.00;5008951;28;19933;-76
2021/03/15 01:05:44;;;;;;;6.45;4.10;;;;;;;8.74;100.00;91903.88;5009999;28;20045;-77
2021/03/15 01:08:12;;;;;;;5.15;3.45;;;;;;;8.59;100.00;91880.56;5012779;28;20116;-77
2021/03/15 01:10:40;;;;;;;4.10;2.78;;;;;;;8.72;100.00;91892.31;5012793;28;20100;-77
2021/03/15 01:13:08;;;;;;;8.75;4.45;;;;;;;8.72;100.00;91887.97;5012309;28;20077;-77
2021/03/15 01:15:35;;;;;;;5.85;3.10;;;;;;;8.66;100.00;91874.31;5012580;28;20054;-77
2021/03/15 01:18:02;;;;;;;6.45;4.13;;;;;;;8.77;100.00;91882.16;5012118;28;20057;-78
2021/03/15 01:20:29;;;;;;;6.70;3.08;;;;;;;8.81;100.00;91884.00;5011911;28;20050;-77
2021/03/15 01:22:55;;;;;;;10.02;3.97;;;;;;;8.76;100.00;91867.81;5012277;28;20046;-78
2021/03/15 01:25:23;;;;;;;;;;;;;;;8.83;100.00;91865.84;5012876;28;20491;-77
2021/03/15 01:27:50;;;;;;;7.32;2.92;;;;;;;8.78;100.00;91864.00;5012299;28;19975;-77
2021/03/15 01:30:17;;;;;;;;;;;;;;;8.76;100.00;91852.44;5012648;28;20049;-77
2021/03/15 01:32:44;;;;;;;4.82;2.95;;;;;;;8.73;100.00;91852.88;5011899;28;20328;-77
2021/03/15 01:35:10;;;;;;;6.82;3.08;;;;;;;8.66;100.00;91843.59;5012052;28;20104;-77
2021/03/15 01:37:37;;;;;;;6.82;4.10;;;;;;;8.72;100.00;91843.66;5011872;28;20419;-77
2021/03/15 01:40:04;;;;;;;;;;;;;;;8.70;100.00;91841.34;5012220;28;20042;-78
2021/03/15 01:42:31;;;;;;;4.82;3.47;;;;;;;8.47;100.00;91821.75;5011998;28;19928;-78
2021/03/15 01:44:57;;;;;;;;;;;;;;;8.57;100.00;91821.16;5012370;28;20128;-78
2021/03/15 01:47:25;;;;;;;4.72;2.97;;;;;;;8.30;100.00;91791.78;5011984;28;19921;-76
2021/03/15 01:49:51;;;;;;;7.07;3.47;;;;;;;8.49;100.00;91814.59;5011884;28;20049;-77
2021/03/15 01:52:18;;;;;;;7.45;3.55;;;;;;;8.40;100.00;91807.31;5011822;28;20419;-77
2021/03/15 01:54:44;;;;;;;8.48;4.88;;;;;;;8.47;100.00;91809.72;5011711;28;20529;-76
2021/03/15 01:57:11;;;;;;;5.40;3.38;;;;;;;8.46;100.00;91808.16;5011342;28;20042;-77
2021/03/15 01:59:38;;;;;;;5.50;3.20;;;;;;;8.52;100.00;91802.16;5011595;28;20112;-77
2021/03/15 02:02:05;;;;;;;5.95;3.17;;;;;;;8.55;100.00;91801.69;5011192;28;20049;-77
2021/03/15 02:04:32;;;;;;;5.35;3.28;;;;;;;8.54;100.00;91807.84;5011386;28;20050;-77
2021/03/15 02:06:59;;;;;;;6.35;3.28;;;;;;;8.51;100.00;91794.66;5011240;28;20054;-77
2021/03/15 02:09:25;;;;;;;5.70;3.33;;;;;;;8.53;100.00;91792.69;5011373;28;20116;-77
2021/03/15 02:11:59;;;;;;;;;;;;;;;8.55;100.00;91801.69;5012002;28;20056;-77
2021/03/15 02:14:33;;;;;;;7.15;3.30;;;;;;;8.55;100.00;91801.69;5011384;28;20397;-77
2021/03/15 02:17:05;;;;;;;12.80;5.22;;;;;;;8.64;100.00;91796.19;5010045;28;20046;-77
2021/03/15 02:20:10;;;;;;;6.80;3.85;;;;;;;8.58;100.00;91772.31;5011303;28;20050;-79
2021/03/15 02:22:46;;;;;;;9.88;4.68;;;;;;;8.35;100.00;91740.72;5010773;28;20053;-76
2021/03/15 02:25:58;;;;;;;6.95;3.85;;;;;;;8.58;100.00;91777.44;5011109;28;20052;-78
2021/03/15 02:29:00;;;;;;;6.40;4.07;;;;;;;8.49;100.00;91771.88;5011056;28;20050;-78
2021/03/15 02:31:52;;;;;;;8.05;4.43;;;;;;;8.42;100.00;91753.34;4954817;28;20524;-78
2021/03/15 02:34:57;;;;;;;7.10;3.90;;;;;;;8.51;100.00;91763.97;5011037;28;20046;-77
2021/03/15 02:37:30;;;;;;;7.43;4.40;;;;;;;8.50;100.00;91754.75;5010962;28;20046;-77
2021/03/15 02:40:05;;;;;;;8.93;4.57;;;;;;;8.47;100.00;91762.91;5010572;28;20142;-77
2021/03/15 02:42:32;;;;;;;10.13;4.55;;;;;;;8.44;100.00;91748.78;5010541;28;20046;-78
2021/03/15 02:45:00;;;;;;;6.68;4.07;;;;;;;8.47;100.00;91750.84;5010703;28;20116;-76
2021/03/15 02:47:28;;;;;;;12.88;6.20;;;;;;;8.49;100.00;91750.63;5010583;28;20046;-76
2021/03/15 02:49:59;;;;;;;10.45;4.30;;;;;;;8.49;100.00;91741.19;5010745;28;20052;-76
2021/03/15 02:52:27;;;;;;;7.97;5.28;;;;;;;8.48;100.00;91734.50;5010226;28;20045;-76
2021/03/15 02:54:55;;;;;;;7.28;4.15;;;;;;;8.48;100.00;91739.59;5010646;28;20050;-76
2021/03/15 02:57:23;;;;;;;9.82;5.03;;;;;;;8.53;100.00;91744.06;5010215;28;20096;-76
2021/03/15 02:59:53;;;;;;;11.35;6.07;;;;;;;8.50;100.00;91741.94;5010421;28;20053;-76
2021/03/15 03:02:20;;;;;;;9.70;5.95;;;;;;;8.50;100.00;91739.38;5010522;28;20100;-76
2021/03/15 03:04:48;;;;;;;11.70;5.28;;;;;;;8.53;100.00;91734.59;5010297;28;20104;-76
2021/03/15 03:07:16;;;;;;;11.57;5.95;;;;;;;8.51;100.00;91723.81;5010402;28;20450;-77
2021/03/15 03:09:43;;;;;;;8.70;5.40;;;;;;;8.52;100.00;91730.50;5010327;28;20180;-77
2021/03/15 03:12:11;;;;;;;8.35;5.00;;;;;;;8.47;100.00;91727.81;5010416;28;20053;-76
2021/03/15 03:14:40;;;;;;;9.45;6.22;;;;;;;8.41;100.00;91724.44;5010368;28;20050;-76
2021/03/15 03:17:07;;;;;;;9.15;5.47;;;;;;;8.43;100.00;91716.53;5010069;28;20046;-76
2021/03/15 03:19:36;;;;;;;10.50;5.13;;;;;;;8.36;100.00;91708.22;5009911;28;20050;-76
2021/03/15 03:22:04;;;;;;;13.98;6.57;;;;;;;8.38;100.00;91716.44;5010163;28;20089;-76
2021/03/15 03:24:33;;;;;;;10.68;5.93;;;;;;;8.33;100.00;91709.44;5010092;28;20054;-76
2021/03/15 03:26:59;;;;;;;11.48;6.13;;;;;;;8.31;100.00;91718.38;5009740;28;20049;-77
2021/03/15 03:29:27;;;;;;;9.20;5.38;;;;;;;8.24;100.00;91701.38;5009397;28;20050;-78
2021/03/15 03:31:57;;;;;;;12.80;5.28;;;;;;;8.29;100.00;91706.59;5010070;28;20054;-76
2021/03/15 03:34:24;;;;;;;11.85;6.30;;;;;;;8.33;100.00;91706.88;5009756;28;20137;-76
2021/03/15 03:36:50;;;;;;;9.88;5.95;;;;;;;8.34;100.00;91703.31;5009707;28;20042;-76
2021/03/15 03:39:17;;;;;;;11.38;5.80;;;;;;;8.39;100.00;91705.97;5009614;28;20510;-76
2021/03/15 03:41:44;;;;;;;10.52;5.55;;;;;;;8.42;100.00;91699.59;5009719;28;20076;-76
2021/03/15 03:44:12;;;;;;;7.32;4.72;;;;;;;8.37;100.00;91684.97;5009554;28;20050;-76
2021/03/15 03:46:40;;;;;;;8.43;4.53;;;;;;;8.29;100.00;91670.78;5009809;28;20056;-75
2021/03/15 03:49:08;;;;;;;6.88;3.92;;;;;;;8.37;100.00;91686.72;5009321;28;20053;-79
2021/03/15 03:51:41;;;;;;;8.98;4.97;;;;;;;8.37;100.00;91681.63;5009724;28;20046;-79
2021/03/15 03:54:13;;;;;;;10.27;5.18;;;;;;;8.32;100.00;91664.41;5009551;28;20050;-77
2021/03/15 03:56:48;;;;;;;10.20;5.13;;;;;;;8.34;100.00;91671.88;5009695;28;20054;-76
2021/03/15 03:59:17;;;;;;;10.30;5.30;;;;;;;8.30;100.00;91666.44;5009572;28;20056;-77
2021/03/15 04:01:49;;;;;;;7.82;4.75;;;;;;;8.14;100.00;91647.50;5009414;28;20058;-76
2021/03/15 04:04:18;;;;;;;9.23;4.70;;;;;;;8.32;100.00;91668.78;5009626;28;20042;-76
2021/03/15 04:06:46;;;;;;;8.02;4.65;;;;;;;8.36;100.00;91667.28;5009442;28;20165;-79
2021/03/15 04:09:14;;;;;;;8.27;3.63;;;;;;;8.28;100.00;91664.09;5009218;28;20053;-78
2021/03/15 04:11:45;;;;;;;8.95;4.15;;;;;;;8.25;100.00;91656.88;5009533;28;20053;-78
2021/03/15 04:14:17;;;;;;;7.97;4.05;;;;;;;8.22;100.00;91659.16;5009494;28;20053;-77
2021/03/15 04:16:45;;;;;;;9.57;5.13;;;;;;;7.96;100.00;91633.97;5009280;28;20553;-77
2021/03/15 04:19:13;;;;;;;7.05;3.97;;;;;;;8.13;100.00;91653.66;5009116;28;20133;-77
2021/03/15 04:21:43;;;;;;;8.73;4.25;;;;;;;8.06;100.00;91653.03;5009373;28;20161;-77
2021/03/15 04:24:12;;;;;;;8.20;4.80;;;;;;;7.94;100.00;91648.78;5009101;28;20038;-78
2021/03/15 04:26:39;;;;;;;7.82;4.07;;;;;;;7.83;100.00;91639.38;5009298;28;20100;-78
2021/03/15 04:29:07;;;;;;;8.45;4.82;;;;;;;7.88;100.00;91653.00;5009395;28;20050;-80
2021/03/15 04:31:36;;;;;;;15.18;5.72;;;;;;;7.88;100.00;91652.25;5008998;28;20592;-79
2021/03/15 04:34:03;;;;;;;9.65;4.47;;;;;;;7.84;100.00;91653.72;5009323;28;20042;-80
2021/03/15 04:36:30;;;;;;;10.05;4.93;;;;;;;7.87;100.00;91651.47;5009235;28;20081;-80
2021/03/15 04:38:58;;;;;;;9.15;4.50;;;;;;;7.94;100.00;91637.75;5009161;28;20077;-80
2021/03/15 04:41:25;;;;;;;10.68;5.75;;;;;;;7.91;100.00;91626.22;5010951;28;20057;-80
2021/03/15 04:43:53;;;;;;;5.60;3.85;;;;;;;7.95;100.00;91609.41;5013095;28;20447;-80
2021/03/15 04:46:23;;;;;;;10.00;3.88;;;;;;;8.09;100.00;91629.53;5012872;28;20041;-80
2021/03/15 04:48:51;;;;;;;7.03;3.97;;;;;;;8.13;100.00;91628.84;5012817;28;20076;-80
2021/03/15 04:51:18;;;;;;;8.25;4.38;;;;;;;8.01;100.00;91626.38;5012834;28;20045;-80
2021/03/15 04:53:45;;;;;;;5.93;3.70;;;;;;;8.00;100.00;91641.94;5012511;28;20182;-79
2021/03/15 04:56:14;;;;;;;6.43;3.63;;;;;;;7.95;100.00;91639.31;5012613;28;20100;-79
2021/03/15 04:58:43;;;;;;;10.05;4.22;;;;;;;8.00;100.00;91634.25;5012576;28;20042;-79
2021/03/15 05:01:11;;;;;;;8.85;4.68;;;;;;;8.05;100.00;91639.47;5012397;28;20048;-80
2021/03/15 05:03:38;;;;;;;9.75;4.65;;;;;;;8.00;100.00;91629.94;5012752;28;20144;-80
2021/03/15 05:06:07;;;;;;;8.98;5.20;;;;;;;7.96;100.00;91630.66;5012445;28;20053;-80
2021/03/15 05:08:37;;;;;;;8.27;3.80;;;;;;;7.94;100.00;91612.97;5012383;28;20046;-80
2021/03/15 05:11:04;;;;;;;8.40;5.10;;;;;;;7.90;100.00;91601.66;5012674;28;20056;-81
2021/03/15 05:13:33;;;;;;;9.60;5.20;;;;;;;7.82;100.00;91615.59;5012571;28;20415;-81
2021/03/15 05:16:00;;;;;;;9.88;4.97;;;;;;;7.78;100.00;91611.94;5012570;28;20050;-81
2021/03/15 05:18:27;;;;;;;13.02;5.70;;;;;;;7.75;100.00;91607.31;5012342;28;20410;-80
2021/03/15 05:20:54;;;;;;;8.15;4.35;;;;;;;7.83;100.00;91594.13;5012524;28;20050;-81
2021/03/15 05:23:23;;;;;;;9.23;5.40;;;;;;;7.95;100.00;91591.50;5011976;28;20133;-81
2021/03/15 05:25:52;;;;;;;8.07;5.18;;;;;;;8.10;100.00;91605.53;5012023;28;20046;-82
2021/03/15 05:28:20;;;;;;;10.35;6.38;;;;;;;7.87;100.00;91584.25;5012003;28;20533;-82
2021/03/15 05:30:47;;;;;;;9.77;5.20;;;;;;;8.13;100.00;91597.38;5011758;28;20061;-81
2021/03/15 05:33:15;;;;;;;7.57;4.78;;;;;;;8.22;100.00;91587.53;5011762;28;20050;-81
2021/03/15 05:35:43;;;;;;;10.68;5.40;;;;;;;8.28;100.00;91592.47;5011873;28;20423;-81
2021/03/15 05:38:10;;;;;;;10.50;4.97;;;;;;;8.29;100.00;91591.47;5012096;28;20475;-81
2021/03/15 05:40:40;;;;;;;8.07;4.60;;;;;;;8.33;100.00;91578.97;5011753;28;20145;-81
2021/03/15 05:43:19;;;;;;;12.20;6.72;;;;;;;8.27;100.00;91578.16;5011512;28;20054;-81
2021/03/15 05:46:08;;;;;;;12.85;6.82;;;;;;;8.40;100.00;91592.41;5011582;28;20085;-81
2021/03/15 05:49:16;;;;;;;13.82;7.30;;;;;;;8.42;100.00;91589.56;5011918;28;20042;-80
2021/03/15 05:52:03;;;;;;;15.52;6.10;;;;;;;8.43;100.00;91594.47;5011753;28;20400;-80
2021/03/15 05:55:00;;;;;;;10.27;5.78;;;;;;;8.43;100.00;91586.78;5011613;28;20046;-79
2021/03/15 05:58:13;;;;;;;11.27;5.18;;;;;;;8.49;100.00;91582.53;5011559;28;20045;-81
2021/03/15 06:00:56;;;;;;;12.30;5.53;;;;;;;8.50;100.00;91573.84;4956931;28;20102;-80
2021/03/15 06:03:41;;;;;;;8.70;4.28;;;;;;;8.63;100.00;91593.22;5011631;28;20119;-79
2021/03/15 06:06:09;;;;;;;11.10;5.15;;;;;;;8.67;100.00;91596.06;5011508;28;20407;-79
2021/03/15 06:08:40;;;;;;;12.00;5.07;;;;;;;8.53;99.00;91573.38;5011381;28;20046;-80
2021/03/15 06:11:11;;;;;;;7.95;3.67;;;;;;;8.68;98.82;91598.41;5011015;28;20053;-79
2021/03/15 06:13:40;;;;;;;10.65;4.38;;;;;;;8.72;98.87;91595.34;5011759;28;20046;-79
2021/03/15 06:16:09;;;;;;;9.57;4.97;;;;;;;8.74;98.45;91608.69;5011319;28;20443;-80
2021/03/15 06:18:36;;;;;;;8.10;4.50;;;;;;;8.81;97.59;91597.25;5011269;28;20046;-80
2021/03/15 06:21:02;;;;;;;8.05;4.70;;;;;;;8.83;97.43;91589.34;5011198;28;20076;-81
2021/03/15 06:23:30;;;;;;;9.02;3.75;;;;;;;8.85;96.89;91597.56;5010775;28;20559;-80
2021/03/15 06:25:57;;;;;;;8.13;5.05;;;;;;;8.85;96.88;91594.22;5011115;28;20054;-81
2021/03/15 06:28:25;;;;;;;5.50;3.10;;;;;;;8.75;96.60;91587.97;5011168;28;20431;-81
2021/03/15 06:30:55;;;;;;;10.68;4.20;;;;;;;8.64;96.89;91581.97;5010804;28;20061;-81
2021/03/15 06:33:23;;;;;;;8.23;3.78;;;;;;;8.78;96.73;91596.97;5010642;28;20054;-82
2021/03/15 06:35:54;;;;;;;11.00;5.22;;;;;;;8.84;96.51;91596.00;5010864;28;20053;-80
2021/03/15 06:38:22;;;;;;;7.88;3.80;;;;;;;8.92;95.76;91597.38;5010870;28;20046;-80
2021/03/15 06:40:49;;;;;;;7.75;3.58;;;;;;;8.99;94.98;91590.28;5010568;28;20049;-81
2021/03/15 06:43:20;;;;;;;6.85;3.47;;;;;;;9.05;95.02;91594.47;5010768;28;20970;-81
2021/03/15 06:45:47;;;;;;;4.30;2.95;;;;;;;9.14;94.53;91594.03;5010514;28;20065;-80
2021/03/15 06:48:15;;;;;;;5.88;3.67;;;;;;;9.27;94.56;91592.88;5010840;28;20049;-80
2021/03/15 06:50:41;;;;;;;6.80;3.05;;;;;;;9.21;93.27;91572.31;5010752;28;20053;-79
2021/03/15 06:53:08;;;;;;;;;;;;;;;9.43;92.21;91596.34;5010648;28;20271;-79
2021/03/15 06:55:45;;;;;;;5.63;2.80;;;;;;;9.43;92.24;91592.00;5010472;28;19928;-79
2021/03/15 06:58:23;;;;;;;5.63;3.33;;;;;;;9.47;91.62;91584.59;5010548;28;20084;-79
2021/03/15 07:01:17;;;;;;;5.57;3.22;;;;;;;9.54;90.69;91592.09;5010688;28;20050;-79
2021/03/15 07:03:45;;;;;;;5.03;3.10;;;;;;;9.55;90.62;91580.81;5009801;28;20041;-79
2021/03/15 07:06:12;;;;;;;6.93;3.95;;;;;;;9.49;90.77;91562.84;5010267;28;20049;-79
2021/03/15 07:08:40;;;;;;;7.82;5.07;;;;;;;9.69;90.62;91579.41;5010462;28;20096;-79
2021/03/15 07:11:20;;;;;;;6.90;4.22;;;;;;;9.71;90.27;91585.06;5009909;28;20553;-79
2021/03/15 07:13:47;;;;;;;11.13;6.30;;;;;;;9.65;89.32;91575.78;5009890;28;20065;-79
2021/03/15 07:16:28;;;;;;;11.70;4.97;;;;;;;9.48;89.27;91558.72;5008019;28;20478;-80
2021/03/15 07:18:56;;;;;;;25.67;12.73;;;;;;;9.50;90.01;91553.38;5009850;28;20057;-79
2021/03/15 07:21:33;;;;;;;6.65;4.50;;;;;;;9.51;90.18;91565.16;5009866;28;20057;-79
2021/03/15 07:23:59;;;;;;;8.30;4.53;;;;;;;9.56;90.63;91564.44;5009891;28;20042;-79
2021/03/15 07:26:26;;;;;;;;;;;;;;;9.55;90.60;91565.44;5010205;28;20046;-80
2021/03/15 07:28:53;;;;;;;18.77;7.50;;;;;;;9.54;90.52;91556.97;5010154;28;19953;-79
2021/03/15 07:31:27;;;;;;;11.93;6.40;;;;;;;9.61;90.48;91562.69;5009730;28;20065;-80
2021/03/15 07:34:11;;;;;;;14.23;7.88;;;;;;;9.52;90.93;91540.28;5010034;28;20445;-79
2021/03/15 07:36:55;;;;;;;10.52;6.00;;;;;;;9.55;90.98;91543.16;5010081;28;20056;-80
2021/03/15 07:39:23;;;;;;;33.58;11.85;;;;;;;9.57;91.26;91546.25;5009879;28;20045;-81
2021/03/15 07:41:51;;;;;;;15.05;7.40;;;;;;;9.62;90.61;91548.06;5010074;28;20061;-81
2021/03/15 07:44:26;;;;;;;13.90;6.72;;;;;;;9.62;90.40;91536.03;5009557;28;20057;-80
2021/03/15 07:46:54;;;;;;;16.80;8.30;;;;;;;9.42;90.27;91511.00;5009961;28;20433;-80
2021/03/15 07:49:26;;;;;;;101.68;29.45;;;;;;;9.39;90.53;91501.25;5009512;28;20050;-80
2021/03/15 07:51:58;;;;;;;125.97;34.28;;;;;;;9.70;90.54;91527.13;5009454;28;20050;-80
2021/03/15 07:54:26;;;;;;;82.00;25.05;;;;;;;9.84;89.88;91524.91;5009487;28;20107;-80
2021/03/15 07:57:15;;;;;;;88.20;27.27;;;;;;;10.11;88.40;91529.19;5009516;28;20050;-80
2021/03/15 07:59:42;;;;;;;155.70;45.90;;;;;;;10.36;87.71;91517.50;5023412;28;20093;-80
2021/03/15 08:02:14;;;;;;;66.88;23.10;;;;;;;10.67;87.55;91517.66;5028406;28;20060;-81
2021/03/15 08:04:41;;;;;;;50.13;19.15;;;;;;;10.95;84.77;91520.03;5029054;28;20096;-82
2021/03/15 08:07:08;;;;;;;14.35;7.22;;;;;;;10.99;83.47;91499.75;5028993;28;20049;-81
2021/03/15 08:09:35;;;;;;;44.03;16.15;;;;;;;11.35;81.20;91513.41;5028854;28;20049;-82
2021/03/15 08:12:06;;;;;;;16.85;8.65;;;;;;;11.39;80.21;91512.91;5029221;28;20082;-83
2021/03/15 08:14:34;;;;;;;23.00;9.18;;;;;;;11.20;80.28;91518.56;5029055;28;20049;-83
2021/03/15 08:17:03;;;;;;;29.00;12.00;;;;;;;11.00;81.62;91494.34;5032529;28;20045;-82
2021/03/15 08:19:32;;;;;;;24.02;9.32;;;;;;;11.05;81.84;91512.34;5033031;28;20055;-82
2021/03/15 08:22:03;;;;;;;15.13;6.75;;;;;;;10.98;82.36;91509.25;5033028;28;20643;-82
2021/03/15 08:24:32;;;;;;;12.57;6.15;;;;;;;10.85;82.58;91482.25;5032988;28;20418;-82
2021/03/15 08:27:01;;;;;;;9.48;5.15;;;;;;;10.98;82.72;91498.19;5032828;28;20131;-81
2021/03/15 08:29:28;;;;;;;12.23;5.00;;;;;;;10.91;82.58;91493.28;5032775;28;20050;-81
2021/03/15 08:31:56;;;;;;;12.50;4.93;;;;;;;10.94;81.84;91496.13;5033159;28;20112;-81
2021/03/15 08:34:24;;;;;;;18.42;8.52;;;;;;;10.90;82.92;91489.19;5032730;28;20045;-81
2021/03/15 08:36:50;;;;;;;23.63;8.70;;;;;;;10.99;83.16;91497.16;5033093;28;20052;-82
2021/03/15 08:39:43;;;;;;;10.07;5.50;;;;;;;11.11;81.98;91496.94;5032522;28;20507;-82
2021/03/15 08:42:28;;;;;;;16.73;7.13;;;;;;;11.11;83.23;91479.72;5032930;28;20834;-82
2021/03/15 08:44:55;;;;;;;33.65;10.52;;;;;;;11.38;82.29;91480.53;5033124;28;20084;-82
2021/03/15 08:47:49;;;;;;;21.20;7.07;;;;;;;11.33;81.03;91476.13;5032714;28;20042;-83
2021/03/15 08:50:41;;;;;;;11.75;5.35;;;;;;;11.24;81.02;91468.16;4997635;28;20056;-84
2021/03/15 08:53:08;;;;;;;12.23;4.68;;;;;;;11.19;81.74;91463.81;5017924;28;20516;-80
2021/03/15 08:55:50;;;;;;;18.95;8.85;;;;;;;11.31;80.91;91450.72;5032669;28;20041;-81
2021/03/15 08:58:38;;;;;;;17.75;7.45;;;;;;;11.35;80.31;91456.09;5031981;28;20544;-82
2021/03/15 09:01:06;;;;;;;9.10;4.78;;;;;;;11.39;80.64;91446.81;5032159;28;20067;-81
2021/03/15 09:03:59;;;;;;;50.67;17.70;;;;;;;11.44;80.40;91420.34;5032176;28;20053;-81
2021/03/15 09:06:47;;;;;;;18.45;8.65;;;;;;;11.81;79.36;91437.25;4985863;28;20049;-82
2021/03/15 09:09:15;;;;;;;20.83;9.30;;;;;;;12.19;78.23;91428.44;5032294;28;20065;-82
2021/03/15 09:11:52;;;;;;;17.70;7.80;;;;;;;12.63;76.97;91419.25;5032430;28;20441;-82
2021/03/15 09:14:33;;;;;;;18.25;7.88;;;;;;;12.96;73.43;91417.75;5032024;28;20487;-82
2021/03/15 09:17:01;;;;;;;9.35;4.70;;;;;;;13.06;72.47;91413.56;5031874;28;20056;-82
2021/03/15 09:19:31;;;;;;;7.80;4.03;;;;;;;13.01;72.14;91404.03;5031863;28;20124;-80
2021/03/15 09:21:58;;;;;;;28.95;10.27;;;;;;;13.05;71.47;91401.72;5031933;28;20053;-80
2021/03/15 09:24:51;;;;;;;14.90;7.13;;;;;;;13.02;72.12;91392.72;5032181;28;20049;-80
2021/03/15 09:27:38;;;;;;;29.73;11.00;;;;;;;13.03;71.60;91394.25;5031310;28;20050;-79
2021/03/15 09:30:10;;;;;;;13.48;6.40;;;;;;;13.17;71.27;91378.94;5031556;28;20057;-79
2021/03/15 09:32:38;;;;;;;28.80;10.35;;;;;;;13.23;66.82;91372.69;5031750;28;20052;-80
2021/03/15 09:35:26;;;;;;;15.68;6.22;;;;;;;13.48;69.28;91372.75;5031554;28;20107;-80
2021/03/15 09:37:56;;;;;;;17.35;7.00;;;;;;;13.70;66.82;91367.09;5031557;28;20494;-81
2021/03/15 09:40:25;;;;;;;18.73;7.18;;;;;;;13.86;65.29;91365.16;5031638;28;20053;-80
2021/03/15 09:42:53;;;;;;;16.90;9.18;;;;;;;14.00;62.58;91365.25;5031419;28;20045;-79
2021/03/15 09:45:25;;;;;;;10.10;5.18;;;;;;;13.94;61.16;91352.69;5031784;28;20490;-79
2021/03/15 09:47:52;;;;;;;14.02;5.00;;;;;;;14.06;63.48;91349.72;5031383;28;20049;-79
2021/03/15 09:50:20;;;;;;;6.80;3.50;;;;;;;14.36;59.51;91345.97;5031600;28;20049;-79
2021/03/15 09:52:46;;;;;;;4.38;2.25;;;;;;;14.70;58.27;91336.44;5031305;28;20041;-79
2021/03/15 09:55:13;;;;;;;6.45;3.90;;;;;;;14.93;58.64;91334.06;5031233;28;20052;-80
2021/03/15 09:57:39;;;;;;;5.38;2.50;;;;;;;15.02;58.45;91334.19;5031217;28;20060;-80
2021/03/15 10:00:09;;;;;;;6.47;4.22;;;;;;;14.94;56.92;91333.78;5031356;28;20103;-80
2021/03/15 10:02:35;;;;;;;11.02;5.55;;;;;;;15.07;56.19;91327.13;5031346;28;20072;-80
2021/03/15 10:05:01;;;;;;;;;;;;;;;15.13;57.25;91314.13;5031475;28;20045;-80
2021/03/15 10:07:28;;;;;;;4.05;2.45;;;;;;;14.84;55.83;91326.19;5030967;28;20387;-81
2021/03/15 10:09:54;;;;;;;56.90;14.70;;;;;;;14.66;56.77;91304.47;5031013;28;20053;-80
2021/03/15 10:12:21;;;;;;;;;;;;;;;14.44;56.58;91310.97;5031471;28;20491;-81
2021/03/15 10:14:58;;;;;;;16.52;5.85;;;;;;;13.87;55.99;91289.25;5030815;28;19925;-80
2021/03/15 10:17:26;;;;;;;6.28;3.25;;;;;;;13.76;57.79;91300.75;5031028;28;20054;-80
2021/03/15 10:19:52;;;;;;;6.82;4.22;;;;;;;13.55;58.50;91297.63;5030867;28;20144;-80
2021/03/15 10:22:20;;;;;;;12.70;6.57;;;;;;;13.39;57.59;91302.94;5030932;28;20143;-80
2021/03/15 10:24:49;;;;;;;4.72;2.60;;;;;;;13.06;57.79;91300.91;5030867;28;20498;-81
2021/03/15 10:27:18;;;;;;;9.20;3.70;;;;;;;12.81;59.04;91291.59;5030855;28;20395;-81
2021/03/15 10:29:50;;;;;;;19.77;10.15;;;;;;;12.88;60.66;91299.78;5030609;28;20050;-80
2021/03/15 10:32:20;;;;;;;7.43;3.60;;;;;;;12.76;62.73;91305.28;5030793;28;20108;-81
2021/03/15 10:34:53;;;;;;;7.00;3.08;;;;;;;12.47;63.59;91300.09;5030341;28;20050;-81
2021/03/15 10:37:21;;;;;;;10.60;5.07;;;;;;;12.08;64.94;91293.91;5030663;28;20103;-81
2021/03/15 10:39:48;;;;;;;11.60;4.85;;;;;;;11.93;70.33;91312.72;5029825;28;20075;-80
2021/03/15 10:42:16;;;;;;;66.80;22.75;;;;;;;11.67;73.18;91307.69;5030654;28;20054;-80
2021/03/15 10:44:43;;;;;;;9.80;4.53;;;;;;;11.40;73.27;91296.72;5030696;28;20095;-80
2021/03/15 10:47:11;;;;;;;8.43;2.95;;;;;;;11.25;76.49;91305.22;5030637;28;20441;-80
2021/03/15 10:49:37;;;;;;;22.27;6.10;;;;;;;11.08;77.09;91313.22;5030695;28;20045;-81
2021/03/15 10:52:05;;;;;;;14.45;4.50;;;;;;;10.79;78.73;91298.38;5021355;28;20137;-81
2021/03/15 10:54:34;;;;;;;5.63;2.47;;;;;;;10.66;79.42;91318.38;5000356;28;20053;-82
2021/03/15 10:57:17;;;;;;;15.38;4.18;;;;;;;10.30;80.20;91320.88;4999181;28;20051;-82
2021/03/15 10:59:46;;;;;;;11.38;4.70;;;;;;;9.95;82.77;91319.78;4999255;28;20050;-81
2021/03/15 11:02:20;;;;;;;6.45;2.28;;;;;;;9.67;83.70;91319.19;5000493;28;20096;-81
2021/03/15 11:04:56;;;;;;;5.30;2.45;;;;;;;9.46;86.26;91313.97;4999893;28;20096;-81
2021/03/15 11:07:28;;;;;;;6.68;3.05;;;;;;;9.28;87.69;91320.28;4999229;28;20085;-80
2021/03/15 11:09:56;;;;;;;17.15;4.80;;;;;;;9.06;88.76;91298.13;4999544;28;20980;-81
2021/03/15 11:12:34;;;;;;;26.50;8.57;;;;;;;9.10;89.01;91317.09;4999029;28;20053;-81
2021/03/15 11:15:08;;;;;;;5.10;2.30;;;;;;;9.08;87.93;91311.47;4998382;28;20495;-81
2021/03/15 11:17:35;;;;;;;34.33;9.00;;;;;;;9.03;89.50;91307.06;5000314;28;20053;-81
2021/03/15 11:20:01;;;;;;;;;;;;;;;9.05;90.09;91310.16;4999053;28;20042;-81
2021/03/15 11:22:31;;;;;;;37.85;11.02;;;;;;;8.73;90.12;91284.59;5004308;28;19922;-81
2021/03/15 11:25:08;;;;;;;24.95;6.75;;;;;;;8.82;91.09;91306.94;4999140;28;20551;-81
2021/03/15 11:27:35;;;;;;;31.33;7.15;;;;;;;8.82;90.20;91319.75;4995724;28;20054;-80
2021/03/15 11:30:01;;;;;;;13.77;4.93;;;;;;;8.68;90.75;91309.16;4990223;28;20098;-79
2021/03/15 11:32:27;;;;;;;;;;;;;;;8.67;89.28;91320.38;4998033;28;20521;-80
2021/03/15 11:34:57;;;;;;;19.73;6.30;;;;;;;8.63;90.14;91316.00;5000004;28;20386;-79
2021/03/15 11:37:25;;;;;;;30.33;10.00;;;;;;;8.67;91.02;91320.38;5009425;28;20120;-80
2021/03/15 11:39:52;;;;;;;34.80;10.05;;;;;;;8.65;89.38;91319.88;5009734;28;20068;-79
2021/03/15 11:42:30;;;;;;;16.42;4.47;;;;;;;8.59;90.36;91320.84;5009349;28;20053;-80
2021/03/15 11:44:57;;;;;;;24.83;7.32;;;;;;;8.68;91.92;91314.28;5009546;28;20056;-80
2021/03/15 11:47:23;;;;;;;11.52;3.70;;;;;;;8.69;91.03;91320.16;5009843;28;20057;-81
2021/03/15 11:49:49;;;;;;;;;;;;;;;8.63;90.60;91316.78;5010287;28;20046;-81
2021/03/15 11:52:23;;;;;;;8.00;3.30;;;;;;;8.43;92.21;91309.69;5009498;28;20370;-80
2021/03/15 11:54:49;;;;;;;32.95;10.73;;;;;;;8.38;92.06;91312.22;5009613;28;20408;-80